Time;durP1;ratioP1;P1;durP2;ratioP2;P2;SDS_P1;SDS_P2;PMS_P1;PMS_P2;Temp;Humidity;BMP_temperature;BMP_pressure;BME280_temperature;BME280_humidity;BME280_pressure;Samples;Min_cycle;Max_cycle;Signal;HPM_P1;HPM_P2
2022/04/02 00:00:20;;;;;;;3.17;2.40;;;15.60;75.40;;;;;;1996848;28;20161;-78
2022/04/02 00:01:19;;;;;;;4.80;3.20;;;15.60;75.50;;;;;;2005337;28;20205;-79
2022/04/02 00:02:17;;;;;;;3.87;2.50;;;15.60;75.50;;;;;;2005593;28;20205;-78
2022/04/02 00:03:16;;;;;;;3.60;2.50;;;15.60;75.40;;;;;;2005652;28;20196;-80
2022/04/02 00:04:14;;;;;;;3.40;2.40;;;15.60;75.30;;;;;;1997229;28;20177;-79
2022/04/02 00:05:13;;;;;;;6.33;3.00;;;15.60;75.60;;;;;;1997156;28;20823;-79
2022/04/02 00:06:12;;;;;;;5.70;2.83;;;15.50;75.40;;;;;;2005015;28;20165;-78
2022/04/02 00:07:10;;;;;;;4.37;2.90;;;15.50;75.40;;;;;;2005857;28;20184;-78
2022/04/02 00:08:09;;;;;;;2.73;2.00;;;15.60;75.40;;;;;;2005825;28;20593;-80
2022/04/02 00:09:07;;;;;;;4.10;2.27;;;15.50;75.40;;;;;;2005759;28;20628;-78
2022/04/02 00:10:07;;;;;;;3.60;2.37;;;15.50;75.40;;;;;;2005611;28;20177;-79
2022/04/02 00:11:05;;;;;;;4.32;2.70;;;15.50;75.60;;;;;;2005634;28;20184;-79
2022/04/02 00:12:04;;;;;;;3.53;2.37;;;15.60;75.60;;;;;;2005707;28;20337;-79
2022/04/02 00:13:03;;;;;;;10.40;2.77;;;15.50;75.60;;;;;;2005461;28;20243;-79
2022/04/02 00:14:02;;;;;;;3.50;2.38;;;15.50;75.50;;;;;;2005508;28;20170;-79
2022/04/02 00:15:00;;;;;;;4.20;2.57;;;15.50;75.40;;;;;;2005404;28;20263;-79
2022/04/02 00:15:59;;;;;;;4.00;2.17;;;15.60;75.70;;;;;;1997239;28;20617;-80
2022/04/02 00:16:58;;;;;;;4.27;2.30;;;15.50;75.60;;;;;;1996989;28;20252;-80
2022/04/02 00:17:56;;;;;;;3.03;2.67;;;15.50;75.60;;;;;;2005063;28;20220;-79
2022/04/02 00:18:55;;;;;;;4.97;2.47;;;15.50;75.60;;;;;;2005422;28;20510;-79
2022/04/02 00:19:54;;;;;;;3.53;2.43;;;15.50;75.60;;;;;;2005281;28;20181;-79
2022/04/02 00:20:52;;;;;;;9.20;3.10;;;15.50;75.80;;;;;;2005377;28;20276;-80
2022/04/02 00:21:51;;;;;;;5.17;2.20;;;15.50;75.70;;;;;;2005426;28;20188;-79
2022/04/02 00:24:07;;;;;;;5.72;2.95;;;15.50;75.70;;;;;;2005416;28;20158;-80
2022/04/02 00:25:06;;;;;;;3.53;2.35;;;15.50;75.50;;;;;;2005490;28;20208;-79
2022/04/02 00:26:19;;;;;;;2.57;2.13;;;15.50;75.80;;;;;;2005441;28;20173;-79
2022/04/02 00:27:18;;;;;;;4.05;2.22;;;15.50;75.90;;;;;;2005425;28;20467;-79
2022/04/02 00:28:16;;;;;;;3.10;2.57;;;15.40;75.70;;;;;;2005200;28;20645;-79
2022/04/02 00:29:15;;;;;;;3.50;2.53;;;15.50;75.70;;;;;;1996710;28;20605;-79
2022/04/02 00:30:13;;;;;;;5.60;2.90;;;15.50;75.70;;;;;;1996676;28;20322;-80
2022/04/02 00:31:13;;;;;;;4.10;2.90;;;15.50;75.70;;;;;;2004757;28;20197;-79
2022/04/02 00:32:11;;;;;;;4.32;3.13;;;15.40;75.60;;;;;;2005325;28;20196;-80
2022/04/02 00:33:10;;;;;;;4.57;2.40;;;15.40;75.60;;;;;;2005231;28;20212;-80
2022/04/02 00:34:10;;;;;;;3.92;2.45;;;15.50;75.70;;;;;;2005529;28;20161;-79
2022/04/02 00:35:09;;;;;;;3.50;2.03;;;15.60;75.80;;;;;;2005352;28;20166;-79
2022/04/02 00:36:08;;;;;;;6.17;2.30;;;15.50;75.60;;;;;;2005395;28;20189;-79
2022/04/02 00:37:07;;;;;;;3.20;2.03;;;15.40;75.60;;;;;;2005459;28;20621;-80
2022/04/02 00:38:07;;;;;;;3.63;2.35;;;15.40;75.50;;;;;;2005193;28;20412;-79
2022/04/02 00:39:07;;;;;;;5.75;2.50;;;15.40;75.60;;;;;;2005486;28;20257;-79
2022/04/02 00:40:06;;;;;;;4.30;2.17;;;15.40;75.60;;;;;;2005371;28;20161;-79
2022/04/02 00:41:06;;;;;;;3.63;2.47;;;15.40;75.60;;;;;;2005287;28;20222;-79
2022/04/02 00:42:05;;;;;;;3.33;2.20;;;15.40;75.60;;;;;;2005265;28;20589;-79
2022/04/02 00:43:04;;;;;;;3.20;1.92;;;15.40;75.70;;;;;;2005285;28;20200;-79
2022/04/02 00:44:10;;;;;;;3.40;2.10;;;15.40;75.60;;;;;;2005318;28;20544;-80
2022/04/02 00:45:09;;;;;;;5.20;2.70;;;15.40;76.40;;;;;;2005137;28;20419;-80
2022/04/02 00:46:10;;;;;;;5.50;2.80;;;15.40;75.60;;;;;;2005191;28;20185;-79
2022/04/02 00:47:09;;;;;;;2.33;2.03;;;15.40;75.60;;;;;;2004680;28;20677;-79
2022/04/02 00:48:07;;;;;;;5.13;2.53;;;15.40;75.70;;;;;;2005453;28;20196;-79
2022/04/02 00:49:11;;;;;;;3.60;2.20;;;15.40;75.70;;;;;;2005322;28;20173;-79
2022/04/02 00:50:11;;;;;;;3.55;2.22;;;15.40;75.60;;;;;;2005306;28;20161;-79
2022/04/02 00:51:13;;;;;;;3.25;2.60;;;15.40;75.60;;;;;;1996998;28;20177;-79
2022/04/02 00:52:12;;;;;;;3.70;2.50;;;15.40;75.70;;;;;;1996957;28;20173;-79
2022/04/02 00:53:11;;;;;;;3.55;2.72;;;15.40;75.60;;;;;;2005244;28;20259;-80
2022/04/02 00:54:15;;;;;;;4.03;2.50;;;15.10;75.40;;;;;;2005362;28;20174;-80
2022/04/02 00:55:15;;;;;;;3.25;2.17;;;15.40;75.60;;;;;;1996788;28;20180;-80
2022/04/02 00:56:15;;;;;;;2.45;2.05;;;15.40;75.70;;;;;;1997498;28;20205;-80
2022/04/02 00:57:14;;;;;;;3.80;2.47;;;15.40;75.60;;;;;;2007504;28;20232;-79
2022/04/02 00:58:13;;;;;;;3.23;2.60;;;15.40;75.90;;;;;;2000304;28;20178;-79
2022/04/02 00:59:12;;;;;;;2.80;2.03;;;15.40;75.60;;;;;;2000282;28;20189;-79
2022/04/02 01:00:12;;;;;;;3.20;2.10;;;15.40;75.70;;;;;;2008653;28;20669;-79
2022/04/02 01:01:11;;;;;;;4.05;2.30;;;15.30;75.60;;;;;;2009627;28;20180;-79
2022/04/02 01:02:10;;;;;;;2.53;2.13;;;15.30;75.70;;;;;;2009129;28;20196;-79
2022/04/02 01:03:11;;;;;;;3.00;2.17;;;15.40;75.80;;;;;;2009438;28;20412;-79
2022/04/02 01:04:10;;;;;;;3.17;2.15;;;15.40;75.80;;;;;;2000201;28;20212;-79
2022/04/02 01:05:09;;;;;;;5.60;2.70;;;15.50;75.70;;;;;;2000159;28;20188;-79
2022/04/02 01:06:10;;;;;;;2.77;2.40;;;15.40;75.80;;;;;;2006624;28;20919;-79
2022/04/02 01:07:09;;;;;;;2.78;2.15;;;15.40;75.80;;;;;;1997877;28;20610;-79
2022/04/02 01:08:09;;;;;;;3.88;2.20;;;15.30;76.40;;;;;;1997376;28;20276;-80
2022/04/02 01:09:09;;;;;;;2.28;1.92;;;15.40;75.80;;;;;;2004999;28;20173;-80
2022/04/02 01:10:07;;;;;;;3.20;2.33;;;15.40;75.80;;;;;;1996797;28;20733;-80
2022/04/02 01:11:07;;;;;;;2.87;2.20;;;15.40;75.90;;;;;;1989383;28;20544;-80
2022/04/02 01:12:06;;;;;;;3.85;2.25;;;15.40;75.90;;;;;;1996458;28;20170;-80
2022/04/02 01:13:06;;;;;;;3.58;2.40;;;15.40;75.90;;;;;;2004920;28;20636;-79
2022/04/02 01:14:05;;;;;;;3.70;2.63;;;15.40;75.80;;;;;;2005564;28;20173;-80
2022/04/02 01:15:04;;;;;;;3.72;2.35;;;15.40;75.70;;;;;;2005287;28;20256;-79
2022/04/02 01:16:03;;;;;;;2.73;2.07;;;15.40;75.70;;;;;;2005213;28;20173;-79
2022/04/02 01:17:04;;;;;;;3.90;2.20;;;15.40;75.80;;;;;;2005481;28;20443;-80
2022/04/02 01:18:03;;;;;;;3.28;2.35;;;15.40;75.70;;;;;;1997049;28;20166;-79
2022/04/02 01:19:03;;;;;;;4.35;2.53;;;15.30;75.70;;;;;;1997126;28;20170;-79
2022/04/02 01:20:03;;;;;;;3.53;1.95;;;15.30;75.70;;;;;;2005182;28;20245;-79
2022/04/02 01:21:01;;;;;;;2.38;2.15;;;15.40;75.70;;;;;;2005715;28;20275;-79
2022/04/02 01:22:01;;;;;;;4.10;2.60;;;15.30;75.60;;;;;;2005520;28;20184;-79
2022/04/02 01:23:00;;;;;;;2.60;1.92;;;15.30;76.40;;;;;;2005452;28;20290;-79
2022/04/02 01:24:00;;;;;;;2.85;2.20;;;15.30;75.70;;;;;;2005807;28;20267;-79
2022/04/02 01:24:58;;;;;;;3.92;2.00;;;15.30;75.70;;;;;;2005426;28;20177;-79
2022/04/02 01:25:59;;;;;;;3.17;2.03;;;15.40;75.60;;;;;;2005477;28;20231;-79
2022/04/02 01:26:59;;;;;;;4.03;2.28;;;15.30;75.70;;;;;;2005394;28;20207;-80
2022/04/02 01:28:01;;;;;;;4.30;2.83;;;15.30;75.70;;;;;;1996936;28;20285;-80
2022/04/02 01:29:00;;;;;;;3.25;2.30;;;15.30;75.70;;;;;;1989322;28;20178;-79
2022/04/02 01:29:59;;;;;;;3.17;2.05;;;15.30;75.80;;;;;;1996154;28;20186;-80
2022/04/02 01:30:57;;;;;;;4.43;2.30;;;15.30;75.80;;;;;;2004905;28;20189;-80
2022/04/02 01:31:56;;;;;;;2.77;1.90;;;15.30;75.70;;;;;;2005426;28;20529;-80
2022/04/02 01:32:55;;;;;;;3.77;2.70;;;15.30;75.70;;;;;;2005210;28;20192;-80
2022/04/02 01:33:55;;;;;;;5.10;2.23;;;15.30;75.70;;;;;;2005350;28;20412;-80
2022/04/02 01:34:53;;;;;;;4.20;2.17;;;15.30;75.70;;;;;;2005278;28;20419;-80
2022/04/02 01:35:59;;;;;;;4.10;2.50;;;15.30;75.60;;;;;;2005173;28;20259;-80
2022/04/02 01:36:57;;;;;;;3.60;2.08;;;15.30;75.70;;;;;;1996702;28;20170;-80
2022/04/02 01:37:56;;;;;;;3.03;2.20;;;15.30;75.70;;;;;;1996897;28;20174;-80
2022/04/02 01:38:55;;;;;;;2.33;2.03;;;15.30;75.80;;;;;;2005003;28;20204;-80
2022/04/02 01:39:54;;;;;;;2.80;1.90;;;15.30;75.80;;;;;;2005115;28;20184;-80
2022/04/02 01:40:52;;;;;;;3.67;2.40;;;15.30;75.70;;;;;;2005487;28;20431;-80
2022/04/02 01:41:51;;;;;;;2.63;2.03;;;15.30;75.60;;;;;;2005179;28;20169;-80
2022/04/02 01:42:49;;;;;;;2.90;1.87;;;15.30;75.60;;;;;;2005232;28;20539;-80
2022/04/02 01:43:49;;;;;;;2.23;1.77;;;15.30;75.60;;;;;;2005420;28;20168;-80
2022/04/02 01:44:51;;;;;;;3.28;2.10;;;15.40;75.80;;;;;;1996664;28;20304;-80
2022/04/02 01:45:54;;;;;;;5.45;2.13;;;15.30;75.60;;;;;;1996870;28;20631;-80
2022/04/02 01:46:53;;;;;;;2.38;1.90;;;15.20;75.60;;;;;;2005241;28;20185;-81
2022/04/02 01:47:53;;;;;;;1.90;1.47;;;15.30;75.60;;;;;;2005210;28;20220;-80
2022/04/02 01:48:52;;;;;;;5.47;2.35;;;15.30;75.60;;;;;;1996672;28;20177;-80
2022/04/02 01:49:50;;;;;;;4.60;2.40;;;15.30;75.70;;;;;;1996790;28;20627;-80
2022/04/02 01:50:50;;;;;;;3.57;2.43;;;15.40;75.80;;;;;;2004418;28;20248;-80
2022/04/02 01:51:49;;;;;;;3.40;2.60;;;15.30;75.70;;;;;;2005151;28;20177;-80
2022/04/02 01:52:48;;;;;;;3.13;2.10;;;15.30;75.70;;;;;;2005104;28;20184;-80
2022/04/02 01:53:47;;;;;;;2.60;2.00;;;15.30;75.60;;;;;;2004976;28;20633;-80
2022/04/02 01:54:47;;;;;;;4.40;2.27;;;15.30;75.60;;;;;;2005147;28;20177;-80
2022/04/02 01:55:46;;;;;;;3.17;2.00;;;15.30;75.70;;;;;;2005081;28;20169;-80
2022/04/02 01:56:45;;;;;;;5.00;2.40;;;15.30;75.60;;;;;;2005051;28;20235;-80
2022/04/02 01:57:44;;;;;;;2.90;2.17;;;15.30;75.80;;;;;;1996651;28;20182;-80
2022/04/02 01:58:44;;;;;;;3.05;2.22;;;15.30;75.50;;;;;;1996012;28;20174;-80
2022/04/02 01:59:44;;;;;;;3.72;2.20;;;15.30;75.70;;;;;;2004808;28;20172;-80
2022/04/02 02:00:43;;;;;;;2.75;2.17;;;15.30;75.60;;;;;;2005342;28;20197;-80
2022/04/02 02:01:42;;;;;;;3.30;2.25;;;15.30;75.70;;;;;;2004983;28;20174;-80
2022/04/02 02:02:41;;;;;;;4.50;2.47;;;15.30;75.50;;;;;;1996637;28;20194;-80
2022/04/02 02:03:39;;;;;;;2.93;1.60;;;15.30;75.50;;;;;;1996496;28;20246;-80
2022/04/02 02:04:38;;;;;;;6.03;2.30;;;15.30;75.50;;;;;;2004728;28;20622;-81
2022/04/02 02:05:36;;;;;;;2.30;1.80;;;15.30;75.50;;;;;;2005025;28;20235;-80
2022/04/02 02:06:38;;;;;;;3.33;2.00;;;15.30;75.50;;;;;;2004942;28;20525;-80
2022/04/02 02:07:37;;;;;;;2.55;1.70;;;15.30;75.60;;;;;;2005095;28;20227;-81
2022/04/02 02:08:37;;;;;;;3.77;2.30;;;15.30;75.60;;;;;;2004914;28;20577;-80
2022/04/02 02:09:35;;;;;;;2.72;2.20;;;15.40;75.60;;;;;;2004825;28;20201;-80
2022/04/02 02:10:34;;;;;;;2.30;2.07;;;15.30;75.50;;;;;;2005058;28;20352;-80
2022/04/02 02:11:33;;;;;;;4.30;2.23;;;15.30;75.70;;;;;;2004999;28;20191;-80
2022/04/02 02:12:32;;;;;;;3.13;2.00;;;15.30;75.60;;;;;;2004943;28;20169;-80
2022/04/02 02:13:30;;;;;;;3.10;2.27;;;15.30;75.50;;;;;;2004882;28;20196;-80
2022/04/02 02:14:31;;;;;;;2.83;2.27;;;15.30;75.50;;;;;;2004807;28;20911;-80
2022/04/02 02:15:30;;;;;;;2.70;2.05;;;15.30;75.50;;;;;;2005067;28;20626;-80
2022/04/02 02:16:28;;;;;;;2.23;1.70;;;15.20;75.40;;;;;;2005119;28;20328;-80
2022/04/02 02:17:27;;;;;;;2.43;1.80;;;15.20;75.50;;;;;;2004827;28;20480;-80
2022/04/02 02:18:25;;;;;;;3.00;2.00;;;15.20;75.40;;;;;;2004854;28;20183;-80
2022/04/02 02:19:24;;;;;;;3.70;2.37;;;15.30;75.60;;;;;;2004941;28;20180;-81
2022/04/02 02:20:23;;;;;;;3.00;2.10;;;15.20;75.50;;;;;;2004875;28;20181;-80
2022/04/02 02:21:21;;;;;;;2.60;2.17;;;15.30;75.60;;;;;;2004848;28;20516;-80
2022/04/02 02:22:20;;;;;;;2.23;1.63;;;15.20;75.50;;;;;;2005073;28;20170;-79
2022/04/02 02:23:18;;;;;;;3.30;2.03;;;15.30;75.50;;;;;;2005054;28;20209;-79
2022/04/02 02:24:17;;;;;;;2.57;2.07;;;15.30;75.60;;;;;;2005144;28;20169;-80
2022/04/02 02:25:17;;;;;;;3.22;2.00;;;15.30;75.60;;;;;;2004891;28;20177;-81
2022/04/02 02:26:16;;;;;;;2.13;1.63;;;15.30;75.50;;;;;;2005015;28;20556;-80
2022/04/02 02:27:15;;;;;;;5.07;2.20;;;15.30;76.30;;;;;;2005163;28;20181;-81
2022/04/02 02:28:15;;;;;;;3.57;2.17;;;15.30;75.60;;;;;;2004965;28;20404;-80
2022/04/02 02:29:14;;;;;;;3.60;2.03;;;15.20;75.50;;;;;;2005313;28;20181;-80
2022/04/02 02:30:14;;;;;;;2.40;1.80;;;15.20;75.40;;;;;;2004859;28;20183;-80
2022/04/02 02:31:12;;;;;;;2.53;1.90;;;15.20;75.40;;;;;;2005037;28;20227;-80
2022/04/02 02:32:11;;;;;;;3.03;1.97;;;15.20;75.40;;;;;;2004958;28;20230;-80
2022/04/02 02:35:50;;;;;;;2.03;1.60;;;15.20;75.50;;;;;;2004920;28;20165;-79
2022/04/02 02:36:49;;;;;;;3.60;1.85;;;15.20;75.60;;;;;;2005376;28;20602;-79
2022/04/02 02:37:48;;;;;;;2.72;1.83;;;15.20;75.80;;;;;;2004893;28;20184;-80
2022/04/02 02:38:46;;;;;;;1.93;1.70;;;15.20;75.70;;;;;;2004722;28;20247;-79
2022/04/02 02:39:45;;;;;;;2.73;1.93;;;15.20;75.40;;;;;;2004819;28;20400;-80
2022/04/02 02:40:43;;;;;;;8.40;1.97;;;15.20;75.40;;;;;;1996520;28;20198;-80
2022/04/02 02:41:42;;;;;;;3.73;2.00;;;15.20;75.60;;;;;;1996502;28;20177;-79
2022/04/02 02:42:43;;;;;;;2.40;1.93;;;15.20;75.40;;;;;;2004414;28;20177;-79
2022/04/02 02:43:42;;;;;;;2.55;1.70;;;15.00;75.10;;;;;;1996413;28;20189;-79
2022/04/02 02:44:41;;;;;;;2.85;1.60;;;15.30;75.60;;;;;;1996575;28;20181;-80
2022/04/02 02:45:40;;;;;;;2.43;1.70;;;15.20;75.30;;;;;;2004342;28;20208;-79
2022/04/02 02:46:38;;;;;;;2.28;1.75;;;15.20;75.40;;;;;;2004494;28;20251;-80
2022/04/02 02:47:38;;;;;;;3.03;2.00;;;15.20;75.40;;;;;;2004583;28;20180;-79
2022/04/02 02:48:36;;;;;;;1.88;1.75;;;15.20;75.40;;;;;;2004783;28;20169;-79
2022/04/02 02:49:35;;;;;;;2.60;1.80;;;15.30;75.60;;;;;;2005020;28;20176;-79
2022/04/02 02:50:33;;;;;;;3.10;2.33;;;15.10;75.50;;;;;;2004470;28;20235;-79
2022/04/02 02:51:32;;;;;;;3.83;2.23;;;15.20;75.50;;;;;;2004725;28;20199;-79
2022/04/02 02:52:31;;;;;;;3.50;1.90;;;15.20;75.60;;;;;;2004758;28;20169;-80
2022/04/02 02:53:29;;;;;;;2.53;1.87;;;15.20;75.60;;;;;;2004649;28;20585;-80
2022/04/02 02:54:28;;;;;;;2.80;1.50;;;15.20;75.40;;;;;;1996328;28;20178;-79
2022/04/02 02:55:28;;;;;;;4.00;1.93;;;15.20;75.50;;;;;;1996356;28;20619;-79
2022/04/02 02:56:28;;;;;;;3.47;2.08;;;15.20;75.60;;;;;;2004301;28;20648;-81
2022/04/02 02:57:26;;;;;;;2.70;1.60;;;15.20;75.40;;;;;;2004767;28;20177;-80
2022/04/02 02:58:25;;;;;;;2.03;1.83;;;15.20;75.60;;;;;;2004757;28;20183;-79
2022/04/02 02:59:23;;;;;;;2.10;1.70;;;15.20;75.60;;;;;;2004946;28;20204;-80
2022/04/02 03:00:23;;;;;;;2.33;1.67;;;15.30;75.60;;;;;;1996352;28;20650;-80
2022/04/02 03:01:22;;;;;;;2.95;1.73;;;15.20;75.50;;;;;;1996553;28;20169;-79
2022/04/02 03:02:21;;;;;;;2.10;1.90;;;15.20;75.50;;;;;;2004737;28;20569;-80
2022/04/02 03:03:19;;;;;;;3.03;1.57;;;15.20;75.50;;;;;;2004751;28;20169;-80
2022/04/02 03:04:18;;;;;;;1.87;1.50;;;15.10;75.50;;;;;;2004772;28;20412;-80
2022/04/02 03:05:17;;;;;;;2.23;1.57;;;15.20;75.60;;;;;;2005114;28;20485;-79
2022/04/02 03:06:16;;;;;;;2.13;1.60;;;15.20;75.50;;;;;;2005079;28;20562;-82
2022/04/02 03:07:14;;;;;;;2.33;1.80;;;15.10;75.40;;;;;;2004852;28;20610;-79
2022/04/02 03:08:13;;;;;;;2.03;1.60;;;15.10;75.40;;;;;;2004706;28;20169;-79
2022/04/02 03:09:12;;;;;;;2.20;1.60;;;15.10;75.60;;;;;;2004925;28;20169;-80
2022/04/02 03:10:10;;;;;;;2.42;1.60;;;15.10;75.50;;;;;;2005509;28;20178;-80
2022/04/02 03:11:09;;;;;;;3.23;2.00;;;15.10;75.50;;;;;;2006781;28;20178;-79
2022/04/02 03:12:09;;;;;;;3.70;2.40;;;15.20;75.60;;;;;;2006809;28;20208;-80
2022/04/02 03:13:08;;;;;;;2.75;1.85;;;15.10;75.40;;;;;;1998001;28;20271;-79
2022/04/02 03:14:07;;;;;;;3.47;2.13;;;15.20;75.70;;;;;;1998639;28;20634;-79
2022/04/02 03:15:05;;;;;;;2.50;1.77;;;15.10;75.50;;;;;;1997566;28;20642;-80
2022/04/02 03:16:04;;;;;;;3.07;1.90;;;15.10;75.60;;;;;;1998553;28;20174;-79
2022/04/02 03:17:03;;;;;;;1.60;1.50;;;15.10;75.40;;;;;;2006201;28;20177;-80
2022/04/02 03:18:05;;;;;;;4.20;2.10;;;15.10;75.40;;;;;;1997980;28;20776;-79
2022/04/02 03:19:06;;;;;;;2.17;1.98;;;15.10;75.40;;;;;;1998107;28;20227;-80
2022/04/02 03:20:06;;;;;;;1.95;1.50;;;15.20;75.60;;;;;;2006761;28;20252;-80
2022/04/02 03:21:04;;;;;;;2.40;1.65;;;15.20;75.70;;;;;;2007082;28;20177;-80
2022/04/02 03:22:03;;;;;;;2.13;1.77;;;15.10;75.60;;;;;;2007122;28;20181;-79
2022/04/02 03:23:04;;;;;;;2.27;1.70;;;15.10;75.70;;;;;;2006674;28;20181;-79
2022/04/02 03:24:02;;;;;;;2.70;1.80;;;15.20;75.70;;;;;;2007175;28;20622;-79
2022/04/02 03:25:02;;;;;;;3.67;2.13;;;15.10;75.70;;;;;;2007713;28;20187;-80
2022/04/02 03:26:00;;;;;;;2.47;1.88;;;15.10;75.50;;;;;;1998997;28;20313;-79
2022/04/02 03:26:59;;;;;;;2.57;2.13;;;15.10;75.50;;;;;;1998855;28;20232;-79
2022/04/02 03:27:58;;;;;;;3.70;1.67;;;15.10;75.50;;;;;;2006196;28;20176;-79
2022/04/02 03:28:57;;;;;;;3.45;1.90;;;15.10;75.40;;;;;;2008315;28;20184;-79
2022/04/02 03:29:55;;;;;;;2.07;1.63;;;15.10;75.50;;;;;;2010379;28;20177;-79
2022/04/02 03:30:54;;;;;;;2.57;1.67;;;15.10;75.50;;;;;;2010563;28;20224;-80
2022/04/02 03:31:54;;;;;;;2.83;1.30;;;15.10;75.50;;;;;;2010905;28;20173;-79
2022/04/02 03:32:53;;;;;;;2.95;1.63;;;15.00;75.40;;;;;;2010717;28;20178;-79
2022/04/02 03:33:52;;;;;;;1.63;1.50;;;15.10;75.50;;;;;;2010989;28;20343;-80
2022/04/02 03:34:50;;;;;;;3.23;1.70;;;15.10;75.60;;;;;;2010561;28;20181;-80
2022/04/02 03:35:48;;;;;;;3.73;1.77;;;15.10;75.60;;;;;;2010012;28;20181;-80
2022/04/02 03:36:47;;;;;;;1.90;1.60;;;15.10;75.70;;;;;;2010370;28;20192;-80
2022/04/02 03:37:48;;;;;;;2.67;1.97;;;15.10;75.50;;;;;;2010503;28;20165;-79
2022/04/02 03:38:46;;;;;;;3.05;2.08;;;15.00;75.50;;;;;;2009918;28;20419;-80
2022/04/02 03:39:45;;;;;;;3.07;2.10;;;15.10;75.70;;;;;;2009872;28;20190;-80
2022/04/02 03:40:46;;;;;;;5.33;2.03;;;15.00;75.50;;;;;;2009541;28;20203;-81
2022/04/02 03:41:45;;;;;;;2.70;1.75;;;15.00;75.60;;;;;;2009651;28;20197;-80
2022/04/02 03:42:45;;;;;;;1.77;1.63;;;15.00;75.50;;;;;;2010010;28;20181;-79
2022/04/02 03:43:45;;;;;;;3.58;1.90;;;15.20;75.70;;;;;;2010559;28;20181;-78
2022/04/02 03:44:43;;;;;;;3.08;1.80;;;15.10;75.60;;;;;;2001061;28;20205;-79
2022/04/02 03:45:42;;;;;;;6.30;1.83;;;15.10;75.50;;;;;;1998451;28;20177;-79
2022/04/02 03:47:58;;;;;;;2.60;1.73;;;15.10;75.40;;;;;;2006166;28;20235;-81
2022/04/02 03:48:58;;;;;;;1.85;1.55;;;15.00;75.40;;;;;;1998537;28;20170;-79
2022/04/02 03:49:56;;;;;;;2.45;1.90;;;15.00;75.60;;;;;;2000471;28;20182;-79
2022/04/02 03:50:55;;;;;;;3.20;2.20;;;15.10;75.70;;;;;;2012360;28;20235;-78
2022/04/02 03:51:54;;;;;;;2.67;1.60;;;15.00;75.50;;;;;;2005101;28;20232;-79
2022/04/02 03:52:53;;;;;;;2.23;1.80;;;15.10;75.70;;;;;;2004656;28;20185;-79
2022/04/02 03:53:51;;;;;;;3.35;1.80;;;15.00;75.50;;;;;;2010628;28;20589;-79
2022/04/02 03:54:52;;;;;;;3.67;1.83;;;15.00;75.40;;;;;;2009092;28;20185;-80
2022/04/02 03:55:50;;;;;;;1.60;1.42;;;15.00;75.60;;;;;;2008606;28;20170;-78
2022/04/02 03:56:49;;;;;;;5.60;1.87;;;15.00;75.70;;;;;;2008634;28;20181;-79
2022/04/02 03:57:49;;;;;;;2.23;1.60;;;15.00;75.70;;;;;;2008022;28;20204;-79
2022/04/02 03:58:48;;;;;;;2.53;1.90;;;15.00;75.60;;;;;;2007316;28;20173;-79
2022/04/02 03:59:47;;;;;;;3.13;1.93;;;15.00;75.60;;;;;;2007144;28;20182;-79
2022/04/02 04:00:45;;;;;;;2.63;1.87;;;15.00;75.50;;;;;;2006922;28;20710;-80
2022/04/02 04:01:44;;;;;;;2.90;2.03;;;15.00;75.60;;;;;;2006821;28;20461;-79
2022/04/02 04:02:43;;;;;;;1.80;1.50;;;15.00;75.60;;;;;;2006679;28;20180;-79
2022/04/02 04:03:41;;;;;;;2.40;1.70;;;15.00;75.50;;;;;;2006679;28;20187;-79
2022/04/02 04:04:40;;;;;;;2.63;1.90;;;15.00;75.70;;;;;;2006780;28;20239;-80
2022/04/02 04:05:39;;;;;;;2.40;1.80;;;15.10;75.60;;;;;;2006827;28;20177;-80
2022/04/02 04:06:37;;;;;;;2.20;1.63;;;15.00;75.70;;;;;;2006976;28;20201;-79
2022/04/02 04:07:36;;;;;;;3.73;1.80;;;15.00;75.60;;;;;;2007219;28;20695;-79
2022/04/02 04:08:40;;;;;;;2.35;1.85;;;15.00;75.70;;;;;;1998053;28;20236;-80
2022/04/02 04:09:40;;;;;;;2.33;1.95;;;15.00;75.60;;;;;;1997907;28;20240;-80
2022/04/02 04:10:39;;;;;;;2.40;1.80;;;15.00;75.60;;;;;;1997637;28;20240;-80
2022/04/02 04:11:38;;;;;;;1.93;1.47;;;15.00;75.60;;;;;;1982184;29;20321;-80
2022/04/02 04:12:36;;;;;;;3.05;1.60;;;15.00;75.70;;;;;;1989332;28;20627;-80
2022/04/02 04:13:35;;;;;;;1.57;1.30;;;15.00;75.60;;;;;;2004930;28;20264;-79
2022/04/02 04:14:34;;;;;;;3.00;1.60;;;15.00;75.60;;;;;;2006253;28;20197;-80
2022/04/02 04:15:33;;;;;;;2.53;1.60;;;15.00;75.60;;;;;;2005980;28;20239;-79
2022/04/02 04:16:32;;;;;;;2.35;1.63;;;15.00;75.60;;;;;;2006383;28;20177;-79
2022/04/02 04:17:31;;;;;;;2.87;2.30;;;15.00;75.60;;;;;;2007327;28;20693;-79
2022/04/02 04:18:29;;;;;;;2.30;1.50;;;15.00;75.70;;;;;;2007402;28;20272;-79
2022/04/02 04:19:28;;;;;;;2.83;1.80;;;15.00;75.70;;;;;;2007118;28;20638;-78
2022/04/02 04:20:27;;;;;;;2.23;1.53;;;15.00;75.80;;;;;;2007228;28;20247;-81
2022/04/02 04:21:27;;;;;;;4.63;1.95;;;15.00;75.70;;;;;;2008304;28;20220;-80
2022/04/02 04:22:26;;;;;;;2.50;1.83;;;15.00;75.50;;;;;;2007804;28;20263;-79
2022/04/02 04:23:26;;;;;;;2.37;1.90;;;15.00;75.70;;;;;;2007956;28;20603;-80
2022/04/02 04:24:24;;;;;;;3.28;1.85;;;15.10;75.80;;;;;;2008015;28;20206;-80
2022/04/02 04:25:23;;;;;;;2.73;2.07;;;15.00;75.60;;;;;;2007255;28;20208;-80
2022/04/02 04:26:22;;;;;;;2.20;1.80;;;15.00;75.60;;;;;;2006663;28;20181;-79
2022/04/02 04:27:21;;;;;;;2.47;1.58;;;15.00;75.50;;;;;;2005689;28;20177;-79
2022/04/02 04:28:19;;;;;;;2.43;1.57;;;15.00;75.60;;;;;;2005632;28;20188;-79
2022/04/02 04:29:18;;;;;;;1.83;1.63;;;14.90;75.50;;;;;;1997163;28;20204;-80
2022/04/02 04:30:16;;;;;;;2.23;1.83;;;15.00;75.70;;;;;;1989253;28;20179;-79
2022/04/02 04:31:17;;;;;;;2.57;1.50;;;14.90;75.50;;;;;;1996554;28;20527;-79
2022/04/02 04:32:15;;;;;;;4.53;1.65;;;14.90;75.50;;;;;;2005208;28;20184;-80
2022/04/02 04:33:15;;;;;;;3.20;2.00;;;15.00;75.70;;;;;;2005593;28;20691;-79
2022/04/02 04:34:13;;;;;;;1.85;1.70;;;15.00;75.80;;;;;;2005629;28;20161;-79
2022/04/02 04:35:13;;;;;;;3.27;1.63;;;15.00;75.90;;;;;;2005635;28;20204;-79
2022/04/02 04:36:12;;;;;;;2.10;1.70;;;14.90;75.70;;;;;;2005580;28;20173;-79
2022/04/02 04:37:10;;;;;;;2.93;1.87;;;14.90;75.60;;;;;;2005591;28;20177;-80
2022/04/02 04:38:09;;;;;;;2.60;1.40;;;14.90;75.60;;;;;;2005375;28;20617;-79
2022/04/02 04:39:07;;;;;;;2.57;1.70;;;14.90;75.50;;;;;;2005528;28;20209;-79
2022/04/02 04:40:08;;;;;;;1.43;1.33;;;14.90;75.70;;;;;;2005425;28;20192;-79
2022/04/02 04:41:06;;;;;;;1.85;1.58;;;14.90;75.70;;;;;;2005575;28;20251;-80
2022/04/02 04:42:05;;;;;;;2.07;1.83;;;15.00;75.60;;;;;;2005542;28;20259;-79
2022/04/02 04:43:04;;;;;;;2.17;1.93;;;14.90;76.30;;;;;;2005120;28;20204;-79
2022/04/02 04:44:02;;;;;;;1.77;1.40;;;14.90;75.50;;;;;;2005282;28;20177;-79
2022/04/02 04:45:01;;;;;;;1.97;1.70;;;15.00;75.60;;;;;;2005218;28;20177;-79
2022/04/02 04:46:00;;;;;;;2.03;1.53;;;14.90;75.60;;;;;;2005205;28;20180;-79
2022/04/02 04:46:59;;;;;;;3.30;1.83;;;14.90;75.60;;;;;;2005171;28;20177;-79
2022/04/02 04:47:59;;;;;;;2.30;1.83;;;14.90;75.50;;;;;;2005362;28;20169;-79
2022/04/02 04:48:57;;;;;;;1.88;1.38;;;14.90;75.60;;;;;;2005125;28;20169;-79
2022/04/02 04:49:56;;;;;;;1.77;1.40;;;15.00;75.70;;;;;;2005195;28;20530;-79
2022/04/02 04:50:54;;;;;;;1.90;1.70;;;14.90;75.60;;;;;;2005018;28;20228;-79
2022/04/02 04:51:53;;;;;;;1.67;1.50;;;14.90;75.40;;;;;;2007172;28;20180;-80
2022/04/02 04:52:52;;;;;;;6.70;1.47;;;14.90;75.50;;;;;;2006054;28;20176;-78
2022/04/02 04:53:54;;;;;;;1.93;1.60;;;14.90;75.40;;;;;;2006948;28;20259;-77
2022/04/02 04:54:54;;;;;;;2.55;1.50;;;14.90;75.40;;;;;;1997904;28;20413;-79
2022/04/02 04:55:52;;;;;;;1.55;1.40;;;14.90;75.60;;;;;;1997105;28;20642;-79
2022/04/02 04:56:51;;;;;;;2.30;1.57;;;14.90;75.50;;;;;;2004935;28;20184;-79
2022/04/02 04:57:50;;;;;;;2.00;1.50;;;14.90;75.40;;;;;;2005370;28;20223;-80
2022/04/02 04:58:49;;;;;;;2.80;1.80;;;14.90;75.30;;;;;;2005354;28;20191;-80
2022/04/02 04:59:47;;;;;;;2.80;1.60;;;14.80;75.10;;;;;;2005316;28;20212;-80
2022/04/02 05:00:46;;;;;;;2.47;1.40;;;14.80;75.20;;;;;;2005318;28;20208;-80
2022/04/02 05:01:47;;;;;;;4.37;1.60;;;14.80;75.10;;;;;;2005286;28;20177;-80
2022/04/02 05:02:45;;;;;;;1.83;1.63;;;14.90;75.20;;;;;;2005275;28;20169;-80
2022/04/02 05:03:44;;;;;;;1.70;1.13;;;14.80;75.30;;;;;;2005221;28;20551;-79
2022/04/02 05:04:42;;;;;;;2.33;1.23;;;14.80;75.30;;;;;;2005320;28;20179;-80
2022/04/02 05:05:41;;;;;;;3.33;1.90;;;14.80;75.10;;;;;;2004922;28;20260;-80
2022/04/02 05:06:41;;;;;;;2.40;1.73;;;14.70;74.90;;;;;;1996762;28;20174;-80
2022/04/02 05:07:40;;;;;;;2.60;1.60;;;14.70;74.80;;;;;;1996821;28;20231;-80
2022/04/02 05:08:39;;;;;;;2.85;1.50;;;14.80;74.90;;;;;;2005075;28;20191;-79
2022/04/02 05:09:39;;;;;;;2.03;1.83;;;14.70;75.00;;;;;;2005109;28;20173;-80
2022/04/02 05:10:42;;;;;;;2.30;1.67;;;14.70;75.40;;;;;;2005195;28;20282;-80
2022/04/02 05:11:41;;;;;;;1.92;1.42;;;14.80;75.40;;;;;;2005099;28;20192;-80
2022/04/02 05:12:39;;;;;;;3.70;1.90;;;14.80;75.30;;;;;;2005119;28;20169;-80
2022/04/02 05:13:40;;;;;;;1.90;1.70;;;15.10;75.80;;;;;;2005162;28;20554;-80